Long Creek, South Carolina
Current Conditions -  °F | °C
As of 11:55 PM on Saturday 22 Nov 2014 (Local Time) from KTOC Reporting Station
Overcast Overcast  
Wind Chill: 49°   Ceiling: 3900
Heat Index: 49°   Visibility: 10mi
Dew Point: 30°   Wind: 0mph
Humidity: 47%   Direction: NA
Pressure: 30.28"   Gusts: NA
Location:  34.71°N, 83.14°W
Report Text: KTOC 230455Z AUTO 00000KT 10SM OVC039 10/M01 A3028 RMK AO2 T00951012
Loading
Personal Weather Stations






























Interactive Weather Map New forecast layout! Learn more

10-Day Weather Forecast

Advertisements
Track Severe Weather on mobile